sensor_id;sensor_type;location;lat;lon;timestamp;P1;durP1;ratioP1;P2;durP2;ratioP2
28174;SDS011;59417;44.788;10.334;2024-02-26T00:00:06;2.08;;;1.60;;
28174;SDS011;59417;44.788;10.334;2024-02-26T00:02:52;2.53;;;1.40;;
28174;SDS011;59417;44.788;10.334;2024-02-26T00:05:20;1.90;;;1.13;;
28174;SDS011;59417;44.788;10.334;2024-02-26T00:07:51;3.70;;;1.43;;
28174;SDS011;59417;44.788;10.334;2024-02-26T00:10:17;3.40;;;1.33;;
28174;SDS011;59417;44.788;10.334;2024-02-26T00:13:50;2.08;;;1.35;;
28174;SDS011;59417;44.788;10.334;2024-02-26T00:16:36;1.45;;;1.35;;
28174;SDS011;59417;44.788;10.334;2024-02-26T00:19:17;2.50;;;1.60;;
28174;SDS011;59417;44.788;10.334;2024-02-26T00:21:50;2.22;;;1.40;;
28174;SDS011;59417;44.788;10.334;2024-02-26T00:24:31;2.63;;;1.90;;
28174;SDS011;59417;44.788;10.334;2024-02-26T00:27:01;2.35;;;1.60;;
28174;SDS011;59417;44.788;10.334;2024-02-26T00:29:30;1.73;;;1.43;;
28174;SDS011;59417;44.788;10.334;2024-02-26T00:31:57;3.40;;;1.70;;
28174;SDS011;59417;44.788;10.334;2024-02-26T00:34:30;4.20;;;1.83;;
28174;SDS011;59417;44.788;10.334;2024-02-26T00:37:49;3.20;;;1.40;;
28174;SDS011;59417;44.788;10.334;2024-02-26T00:40:16;4.90;;;1.67;;
28174;SDS011;59417;44.788;10.334;2024-02-26T00:42:42;1.55;;;1.40;;
28174;SDS011;59417;44.788;10.334;2024-02-26T00:45:17;3.45;;;1.70;;
28174;SDS011;59417;44.788;10.334;2024-02-26T00:47:46;4.03;;;1.80;;
28174;SDS011;59417;44.788;10.334;2024-02-26T00:50:16;2.85;;;1.77;;
28174;SDS011;59417;44.788;10.334;2024-02-26T00:52:55;3.90;;;1.80;;
28174;SDS011;59417;44.788;10.334;2024-02-26T00:55:48;2.90;;;1.48;;
28174;SDS011;59417;44.788;10.334;2024-02-26T00:58:33;5.15;;;1.40;;
28174;SDS011;59417;44.788;10.334;2024-02-26T01:01:09;2.10;;;1.55;;
28174;SDS011;59417;44.788;10.334;2024-02-26T01:03:41;3.00;;;1.27;;
28174;SDS011;59417;44.788;10.334;2024-02-26T01:06:28;2.45;;;1.42;;
28174;SDS011;59417;44.788;10.334;2024-02-26T01:09:14;2.63;;;1.67;;
28174;SDS011;59417;44.788;10.334;2024-02-26T01:11:47;4.25;;;1.88;;
28174;SDS011;59417;44.788;10.334;2024-02-26T01:17:47;4.30;;;1.60;;
28174;SDS011;59417;44.788;10.334;2024-02-26T01:23:35;2.13;;;1.63;;
28174;SDS011;59417;44.788;10.334;2024-02-26T01:26:03;2.83;;;1.50;;
28174;SDS011;59417;44.788;10.334;2024-02-26T01:28:47;1.38;;;1.27;;
28174;SDS011;59417;44.788;10.334;2024-02-26T01:31:17;2.00;;;1.38;;
28174;SDS011;59417;44.788;10.334;2024-02-26T01:33:56;5.32;;;2.10;;
28174;SDS011;59417;44.788;10.334;2024-02-26T01:36:28;1.98;;;1.70;;
28174;SDS011;59417;44.788;10.334;2024-02-26T01:39:24;3.80;;;1.90;;
28174;SDS011;59417;44.788;10.334;2024-02-26T01:42:08;2.80;;;2.03;;
28174;SDS011;59417;44.788;10.334;2024-02-26T01:44:38;3.90;;;2.78;;
28174;SDS011;59417;44.788;10.334;2024-02-26T01:47:04;2.50;;;2.15;;
28174;SDS011;59417;44.788;10.334;2024-02-26T01:49:33;3.63;;;2.37;;
28174;SDS011;59417;44.788;10.334;2024-02-26T01:59:12;4.47;;;2.03;;
28174;SDS011;59417;44.788;10.334;2024-02-26T02:01:39;5.45;;;2.25;;
28174;SDS011;59417;44.788;10.334;2024-02-26T02:04:08;2.25;;;1.98;;
28174;SDS011;59417;44.788;10.334;2024-02-26T02:06:34;3.42;;;2.08;;
28174;SDS011;59417;44.788;10.334;2024-02-26T02:09:01;3.90;;;2.17;;
28174;SDS011;59417;44.788;10.334;2024-02-26T02:11:32;2.60;;;2.10;;
28174;SDS011;59417;44.788;10.334;2024-02-26T02:13:59;3.65;;;2.20;;
28174;SDS011;59417;44.788;10.334;2024-02-26T02:16:24;2.78;;;2.30;;
28174;SDS011;59417;44.788;10.334;2024-02-26T02:18:50;3.45;;;2.35;;
28174;SDS011;59417;44.788;10.334;2024-02-26T02:21:16;3.40;;;1.98;;
28174;SDS011;59417;44.788;10.334;2024-02-26T02:23:41;3.30;;;2.30;;
28174;SDS011;59417;44.788;10.334;2024-02-26T02:26:11;3.08;;;2.53;;
28174;SDS011;59417;44.788;10.334;2024-02-26T02:28:40;6.13;;;2.70;;
28174;SDS011;59417;44.788;10.334;2024-02-26T02:31:07;3.15;;;1.83;;
28174;SDS011;59417;44.788;10.334;2024-02-26T02:33:33;5.38;;;2.42;;
28174;SDS011;59417;44.788;10.334;2024-02-26T02:36:00;2.72;;;2.40;;
28174;SDS011;59417;44.788;10.334;2024-02-26T02:38:25;3.25;;;2.30;;
28174;SDS011;59417;44.788;10.334;2024-02-26T02:40:51;3.20;;;2.20;;
28174;SDS011;59417;44.788;10.334;2024-02-26T02:43:17;3.35;;;2.05;;
28174;SDS011;59417;44.788;10.334;2024-02-26T02:45:43;2.80;;;2.53;;
28174;SDS011;59417;44.788;10.334;2024-02-26T02:48:08;3.65;;;2.40;;
28174;SDS011;59417;44.788;10.334;2024-02-26T02:50:34;3.35;;;2.08;;
28174;SDS011;59417;44.788;10.334;2024-02-26T02:53:00;3.10;;;2.40;;
28174;SDS011;59417;44.788;10.334;2024-02-26T02:55:26;4.13;;;2.30;;
28174;SDS011;59417;44.788;10.334;2024-02-26T02:57:52;3.42;;;2.50;;
28174;SDS011;59417;44.788;10.334;2024-02-26T03:00:17;2.47;;;2.03;;
28174;SDS011;59417;44.788;10.334;2024-02-26T03:02:43;4.10;;;2.50;;
28174;SDS011;59417;44.788;10.334;2024-02-26T03:05:10;3.08;;;2.30;;
28174;SDS011;59417;44.788;10.334;2024-02-26T03:07:37;3.33;;;1.90;;
28174;SDS011;59417;44.788;10.334;2024-02-26T03:10:03;3.80;;;1.98;;
28174;SDS011;59417;44.788;10.334;2024-02-26T03:12:29;3.00;;;2.00;;
28174;SDS011;59417;44.788;10.334;2024-02-26T03:17:34;4.65;;;2.10;;
28174;SDS011;59417;44.788;10.334;2024-02-26T03:20:07;3.50;;;2.17;;
28174;SDS011;59417;44.788;10.334;2024-02-26T03:23:13;4.80;;;2.72;;
28174;SDS011;59417;44.788;10.334;2024-02-26T03:26:10;6.35;;;3.53;;
28174;SDS011;59417;44.788;10.334;2024-02-26T03:28:51;4.45;;;2.92;;
28174;SDS011;59417;44.788;10.334;2024-02-26T03:31:57;8.73;;;4.75;;
28174;SDS011;59417;44.788;10.334;2024-02-26T03:34:56;6.32;;;4.72;;
28174;SDS011;59417;44.788;10.334;2024-02-26T03:37:48;12.20;;;6.07;;
28174;SDS011;59417;44.788;10.334;2024-02-26T03:40:50;9.25;;;7.10;;
28174;SDS011;59417;44.788;10.334;2024-02-26T03:43:19;8.57;;;6.75;;
28174;SDS011;59417;44.788;10.334;2024-02-26T03:45:45;13.95;;;7.97;;
28174;SDS011;59417;44.788;10.334;2024-02-26T03:48:11;10.45;;;8.10;;
28174;SDS011;59417;44.788;10.334;2024-02-26T03:51:04;14.57;;;10.27;;
28174;SDS011;59417;44.788;10.334;2024-02-26T03:54:01;12.02;;;10.07;;
28174;SDS011;59417;44.788;10.334;2024-02-26T03:56:57;17.33;;;10.10;;
28174;SDS011;59417;44.788;10.334;2024-02-26T03:59:32;14.43;;;10.05;;
28174;SDS011;59417;44.788;10.334;2024-02-26T04:01:57;18.23;;;10.35;;
28174;SDS011;59417;44.788;10.334;2024-02-26T04:04:23;15.15;;;11.15;;
28174;SDS011;59417;44.788;10.334;2024-02-26T04:06:55;16.23;;;10.57;;
28174;SDS011;59417;44.788;10.334;2024-02-26T04:09:21;19.65;;;9.65;;
28174;SDS011;59417;44.788;10.334;2024-02-26T04:11:46;13.07;;;9.32;;
28174;SDS011;59417;44.788;10.334;2024-02-26T04:14:12;11.45;;;8.88;;
28174;SDS011;59417;44.788;10.334;2024-02-26T04:16:41;9.38;;;8.35;;
28174;SDS011;59417;44.788;10.334;2024-02-26T04:19:17;12.50;;;8.50;;
28174;SDS011;59417;44.788;10.334;2024-02-26T04:23:11;10.00;;;7.35;;
28174;SDS011;59417;44.788;10.334;2024-02-26T04:32:33;8.43;;;6.07;;
28174;SDS011;59417;44.788;10.334;2024-02-26T04:38:57;10.52;;;5.70;;
28174;SDS011;59417;44.788;10.334;2024-02-26T04:41:23;6.75;;;5.22;;
28174;SDS011;59417;44.788;10.334;2024-02-26T04:43:56;7.70;;;6.47;;
28174;SDS011;59417;44.788;10.334;2024-02-26T04:46:44;11.82;;;6.15;;
28174;SDS011;59417;44.788;10.334;2024-02-26T04:49:10;9.77;;;6.18;;
28174;SDS011;59417;44.788;10.334;2024-02-26T04:51:47;9.57;;;6.93;;
28174;SDS011;59417;44.788;10.334;2024-02-26T04:54:43;8.18;;;6.47;;
28174;SDS011;59417;44.788;10.334;2024-02-26T04:57:26;11.40;;;6.35;;
28174;SDS011;59417;44.788;10.334;2024-02-26T04:59:56;9.38;;;6.95;;
28174;SDS011;59417;44.788;10.334;2024-02-26T05:02:25;8.80;;;7.15;;
28174;SDS011;59417;44.788;10.334;2024-02-26T05:05:41;13.35;;;8.52;;
28174;SDS011;59417;44.788;10.334;2024-02-26T05:07:45;14.45;;;9.65;;
28174;SDS011;59417;44.788;10.334;2024-02-26T05:10:11;14.20;;;9.45;;
28174;SDS011;59417;44.788;10.334;2024-02-26T05:12:37;14.55;;;10.30;;
28174;SDS011;59417;44.788;10.334;2024-02-26T05:15:14;15.60;;;12.00;;
28174;SDS011;59417;44.788;10.334;2024-02-26T05:24:05;20.60;;;14.15;;
28174;SDS011;59417;44.788;10.334;2024-02-26T05:26:31;20.67;;;14.60;;
28174;SDS011;59417;44.788;10.334;2024-02-26T05:28:56;17.55;;;14.43;;
28174;SDS011;59417;44.788;10.334;2024-02-26T05:31:26;22.02;;;16.08;;
28174;SDS011;59417;44.788;10.334;2024-02-26T05:33:52;22.35;;;16.42;;
28174;SDS011;59417;44.788;10.334;2024-02-26T05:36:22;18.90;;;15.23;;
28174;SDS011;59417;44.788;10.334;2024-02-26T05:38:48;23.85;;;15.98;;
28174;SDS011;59417;44.788;10.334;2024-02-26T05:41:15;20.73;;;16.27;;
28174;SDS011;59417;44.788;10.334;2024-02-26T05:43:41;23.02;;;15.45;;
28174;SDS011;59417;44.788;10.334;2024-02-26T05:46:08;26.25;;;17.92;;
28174;SDS011;59417;44.788;10.334;2024-02-26T05:48:34;20.17;;;15.85;;
28174;SDS011;59417;44.788;10.334;2024-02-26T05:51:00;18.55;;;13.90;;
28174;SDS011;59417;44.788;10.334;2024-02-26T05:53:25;25.48;;;14.50;;
28174;SDS011;59417;44.788;10.334;2024-02-26T05:55:51;19.42;;;14.75;;
28174;SDS011;59417;44.788;10.334;2024-02-26T05:58:17;22.27;;;16.40;;
28174;SDS011;59417;44.788;10.334;2024-02-26T06:00:43;22.02;;;14.45;;
28174;SDS011;59417;44.788;10.334;2024-02-26T06:03:09;25.40;;;18.40;;
28174;SDS011;59417;44.788;10.334;2024-02-26T06:05:34;28.25;;;18.30;;
28174;SDS011;59417;44.788;10.334;2024-02-26T06:08:00;21.00;;;17.58;;
28174;SDS011;59417;44.788;10.334;2024-02-26T06:10:28;23.83;;;18.25;;
28174;SDS011;59417;44.788;10.334;2024-02-26T06:12:54;25.80;;;18.70;;
28174;SDS011;59417;44.788;10.334;2024-02-26T06:15:19;28.00;;;19.40;;
28174;SDS011;59417;44.788;10.334;2024-02-26T06:17:45;24.48;;;18.88;;
28174;SDS011;59417;44.788;10.334;2024-02-26T06:20:11;24.98;;;19.30;;
28174;SDS011;59417;44.788;10.334;2024-02-26T06:22:42;28.33;;;20.00;;
28174;SDS011;59417;44.788;10.334;2024-02-26T06:25:08;23.15;;;18.63;;
28174;SDS011;59417;44.788;10.334;2024-02-26T06:27:35;31.52;;;20.88;;
28174;SDS011;59417;44.788;10.334;2024-02-26T06:30:00;30.00;;;19.92;;
28174;SDS011;59417;44.788;10.334;2024-02-26T06:32:26;24.20;;;18.88;;
28174;SDS011;59417;44.788;10.334;2024-02-26T06:34:54;25.15;;;20.45;;
28174;SDS011;59417;44.788;10.334;2024-02-26T06:37:20;23.08;;;18.90;;
28174;SDS011;59417;44.788;10.334;2024-02-26T06:39:46;24.23;;;19.70;;
28174;SDS011;59417;44.788;10.334;2024-02-26T06:42:11;28.70;;;21.48;;
28174;SDS011;59417;44.788;10.334;2024-02-26T06:44:37;25.35;;;19.73;;
28174;SDS011;59417;44.788;10.334;2024-02-26T06:47:03;26.52;;;20.02;;
28174;SDS011;59417;44.788;10.334;2024-02-26T06:49:29;24.45;;;19.38;;
28174;SDS011;59417;44.788;10.334;2024-02-26T06:51:54;32.35;;;21.80;;
28174;SDS011;59417;44.788;10.334;2024-02-26T06:54:20;26.27;;;20.77;;
28174;SDS011;59417;44.788;10.334;2024-02-26T06:56:46;27.35;;;21.95;;
28174;SDS011;59417;44.788;10.334;2024-02-26T06:59:11;30.55;;;22.85;;
28174;SDS011;59417;44.788;10.334;2024-02-26T07:01:39;26.25;;;22.05;;
28174;SDS011;59417;44.788;10.334;2024-02-26T07:04:07;29.75;;;21.27;;
28174;SDS011;59417;44.788;10.334;2024-02-26T07:06:34;27.85;;;20.92;;
28174;SDS011;59417;44.788;10.334;2024-02-26T07:08:59;33.28;;;24.08;;
28174;SDS011;59417;44.788;10.334;2024-02-26T07:11:25;33.28;;;25.02;;
28174;SDS011;59417;44.788;10.334;2024-02-26T07:13:50;31.73;;;24.95;;
28174;SDS011;59417;44.788;10.334;2024-02-26T07:16:16;31.30;;;23.00;;
28174;SDS011;59417;44.788;10.334;2024-02-26T07:18:41;29.58;;;22.42;;
28174;SDS011;59417;44.788;10.334;2024-02-26T07:21:11;33.00;;;24.65;;
28174;SDS011;59417;44.788;10.334;2024-02-26T07:23:37;32.90;;;23.67;;
28174;SDS011;59417;44.788;10.334;2024-02-26T07:26:03;36.17;;;25.80;;
28174;SDS011;59417;44.788;10.334;2024-02-26T07:28:29;32.75;;;24.42;;
28174;SDS011;59417;44.788;10.334;2024-02-26T07:30:55;29.40;;;24.65;;
28174;SDS011;59417;44.788;10.334;2024-02-26T07:33:21;29.48;;;22.60;;
28174;SDS011;59417;44.788;10.334;2024-02-26T07:35:47;31.15;;;22.92;;
28174;SDS011;59417;44.788;10.334;2024-02-26T07:38:13;30.50;;;24.55;;
28174;SDS011;59417;44.788;10.334;2024-02-26T07:40:39;33.95;;;25.45;;
28174;SDS011;59417;44.788;10.334;2024-02-26T07:43:05;31.27;;;24.67;;
28174;SDS011;59417;44.788;10.334;2024-02-26T07:45:30;34.88;;;25.55;;
28174;SDS011;59417;44.788;10.334;2024-02-26T07:47:56;29.00;;;23.60;;
28174;SDS011;59417;44.788;10.334;2024-02-26T07:50:21;29.63;;;24.92;;
28174;SDS011;59417;44.788;10.334;2024-02-26T07:52:47;36.65;;;23.98;;
28174;SDS011;59417;44.788;10.334;2024-02-26T07:55:13;29.77;;;24.50;;
28174;SDS011;59417;44.788;10.334;2024-02-26T07:57:41;30.95;;;22.67;;
28174;SDS011;59417;44.788;10.334;2024-02-26T08:00:08;30.10;;;21.93;;
28174;SDS011;59417;44.788;10.334;2024-02-26T08:02:35;28.73;;;23.13;;
28174;SDS011;59417;44.788;10.334;2024-02-26T08:05:01;28.73;;;21.95;;
28174;SDS011;59417;44.788;10.334;2024-02-26T08:07:27;32.33;;;23.40;;
28174;SDS011;59417;44.788;10.334;2024-02-26T08:09:53;27.05;;;22.15;;
28174;SDS011;59417;44.788;10.334;2024-02-26T08:12:19;31.65;;;23.27;;
28174;SDS011;59417;44.788;10.334;2024-02-26T08:14:45;24.63;;;21.10;;
28174;SDS011;59417;44.788;10.334;2024-02-26T08:17:10;26.20;;;21.45;;
28174;SDS011;59417;44.788;10.334;2024-02-26T08:19:36;28.35;;;20.98;;
28174;SDS011;59417;44.788;10.334;2024-02-26T08:22:02;25.63;;;20.20;;
28174;SDS011;59417;44.788;10.334;2024-02-26T08:24:27;24.35;;;19.05;;
28174;SDS011;59417;44.788;10.334;2024-02-26T08:26:53;25.50;;;19.73;;
28174;SDS011;59417;44.788;10.334;2024-02-26T08:29:19;24.15;;;18.35;;
28174;SDS011;59417;44.788;10.334;2024-02-26T08:31:45;26.02;;;17.92;;
28174;SDS011;59417;44.788;10.334;2024-02-26T08:34:11;22.17;;;18.30;;
28174;SDS011;59417;44.788;10.334;2024-02-26T08:36:37;30.20;;;19.98;;
28174;SDS011;59417;44.788;10.334;2024-02-26T08:39:03;25.70;;;18.33;;
28174;SDS011;59417;44.788;10.334;2024-02-26T08:41:29;24.35;;;18.13;;
28174;SDS011;59417;44.788;10.334;2024-02-26T08:43:55;28.88;;;20.30;;
28174;SDS011;59417;44.788;10.334;2024-02-26T08:46:20;26.38;;;19.52;;
28174;SDS011;59417;44.788;10.334;2024-02-26T08:48:50;19.88;;;15.38;;
28174;SDS011;59417;44.788;10.334;2024-02-26T08:51:15;19.33;;;15.57;;
28174;SDS011;59417;44.788;10.334;2024-02-26T08:53:42;21.10;;;13.40;;
28174;SDS011;59417;44.788;10.334;2024-02-26T08:56:08;22.70;;;12.68;;
28174;SDS011;59417;44.788;10.334;2024-02-26T08:58:33;17.42;;;12.55;;
28174;SDS011;59417;44.788;10.334;2024-02-26T09:00:59;16.00;;;12.82;;
28174;SDS011;59417;44.788;10.334;2024-02-26T09:03:25;16.92;;;12.98;;
28174;SDS011;59417;44.788;10.334;2024-02-26T09:05:51;17.38;;;12.48;;
28174;SDS011;59417;44.788;10.334;2024-02-26T09:08:17;17.17;;;13.18;;
28174;SDS011;59417;44.788;10.334;2024-02-26T09:10:43;16.02;;;13.50;;
28174;SDS011;59417;44.788;10.334;2024-02-26T09:13:08;16.20;;;13.50;;
28174;SDS011;59417;44.788;10.334;2024-02-26T09:15:34;15.23;;;13.48;;
28174;SDS011;59417;44.788;10.334;2024-02-26T09:18:00;13.95;;;11.68;;
28174;SDS011;59417;44.788;10.334;2024-02-26T09:20:26;16.25;;;13.55;;
28174;SDS011;59417;44.788;10.334;2024-02-26T09:22:52;20.27;;;13.30;;
28174;SDS011;59417;44.788;10.334;2024-02-26T09:25:19;16.17;;;11.32;;
28174;SDS011;59417;44.788;10.334;2024-02-26T09:27:46;20.63;;;13.25;;
28174;SDS011;59417;44.788;10.334;2024-02-26T09:30:12;20.85;;;13.63;;
28174;SDS011;59417;44.788;10.334;2024-02-26T09:32:39;19.27;;;12.90;;
28174;SDS011;59417;44.788;10.334;2024-02-26T09:35:05;20.08;;;12.10;;
28174;SDS011;59417;44.788;10.334;2024-02-26T09:37:32;15.73;;;12.73;;
28174;SDS011;59417;44.788;10.334;2024-02-26T09:39:59;14.88;;;11.63;;
28174;SDS011;59417;44.788;10.334;2024-02-26T09:42:26;15.05;;;13.45;;
28174;SDS011;59417;44.788;10.334;2024-02-26T09:44:55;15.02;;;11.38;;
28174;SDS011;59417;44.788;10.334;2024-02-26T09:47:28;15.40;;;11.85;;
28174;SDS011;59417;44.788;10.334;2024-02-26T09:49:56;15.48;;;11.70;;
28174;SDS011;59417;44.788;10.334;2024-02-26T09:52:27;14.77;;;12.27;;
28174;SDS011;59417;44.788;10.334;2024-02-26T09:54:54;16.27;;;12.23;;
28174;SDS011;59417;44.788;10.334;2024-02-26T09:57:20;15.68;;;11.68;;
28174;SDS011;59417;44.788;10.334;2024-02-26T09:59:49;13.70;;;11.45;;
28174;SDS011;59417;44.788;10.334;2024-02-26T10:02:19;14.73;;;12.23;;
28174;SDS011;59417;44.788;10.334;2024-02-26T10:04:46;16.90;;;12.65;;
28174;SDS011;59417;44.788;10.334;2024-02-26T10:07:16;14.23;;;12.02;;
28174;SDS011;59417;44.788;10.334;2024-02-26T10:09:41;14.95;;;11.90;;
28174;SDS011;59417;44.788;10.334;2024-02-26T10:12:08;14.15;;;11.23;;
28174;SDS011;59417;44.788;10.334;2024-02-26T10:14:36;16.40;;;13.10;;
28174;SDS011;59417;44.788;10.334;2024-02-26T10:17:02;15.07;;;11.52;;
28174;SDS011;59417;44.788;10.334;2024-02-26T10:19:29;21.95;;;12.88;;
28174;SDS011;59417;44.788;10.334;2024-02-26T10:21:59;16.85;;;11.57;;
28174;SDS011;59417;44.788;10.334;2024-02-26T10:24:26;15.45;;;12.00;;
28174;SDS011;59417;44.788;10.334;2024-02-26T10:26:53;15.50;;;11.93;;
28174;SDS011;59417;44.788;10.334;2024-02-26T10:29:20;17.70;;;12.82;;
28174;SDS011;59417;44.788;10.334;2024-02-26T10:31:47;15.90;;;11.85;;
28174;SDS011;59417;44.788;10.334;2024-02-26T10:34:19;16.42;;;12.00;;
28174;SDS011;59417;44.788;10.334;2024-02-26T10:36:49;15.57;;;11.95;;
28174;SDS011;59417;44.788;10.334;2024-02-26T10:39:15;16.58;;;13.05;;
28174;SDS011;59417;44.788;10.334;2024-02-26T10:41:41;17.77;;;12.07;;
28174;SDS011;59417;44.788;10.334;2024-02-26T10:44:09;19.08;;;12.38;;
28174;SDS011;59417;44.788;10.334;2024-02-26T10:46:40;15.60;;;12.60;;
28174;SDS011;59417;44.788;10.334;2024-02-26T10:49:08;15.82;;;12.23;;
28174;SDS011;59417;44.788;10.334;2024-02-26T10:51:45;18.15;;;12.52;;
28174;SDS011;59417;44.788;10.334;2024-02-26T10:54:17;20.27;;;12.57;;
28174;SDS011;59417;44.788;10.334;2024-02-26T10:56:44;13.82;;;11.10;;
28174;SDS011;59417;44.788;10.334;2024-02-26T10:59:15;17.23;;;11.15;;
28174;SDS011;59417;44.788;10.334;2024-02-26T11:01:47;21.08;;;12.15;;
28174;SDS011;59417;44.788;10.334;2024-02-26T11:04:15;18.92;;;12.38;;
28174;SDS011;59417;44.788;10.334;2024-02-26T11:06:42;16.60;;;12.55;;
28174;SDS011;59417;44.788;10.334;2024-02-26T11:09:10;19.77;;;12.25;;
28174;SDS011;59417;44.788;10.334;2024-02-26T11:11:41;15.57;;;12.55;;
28174;SDS011;59417;44.788;10.334;2024-02-26T11:14:08;17.13;;;12.50;;
28174;SDS011;59417;44.788;10.334;2024-02-26T11:16:35;15.18;;;11.88;;
28174;SDS011;59417;44.788;10.334;2024-02-26T11:19:03;17.30;;;10.95;;
28174;SDS011;59417;44.788;10.334;2024-02-26T11:21:29;14.65;;;11.40;;
28174;SDS011;59417;44.788;10.334;2024-02-26T11:24:07;15.23;;;10.18;;
28174;SDS011;59417;44.788;10.334;2024-02-26T11:26:48;18.52;;;11.85;;
28174;SDS011;59417;44.788;10.334;2024-02-26T11:29:21;26.52;;;18.63;;
28174;SDS011;59417;44.788;10.334;2024-02-26T11:31:54;17.52;;;11.68;;
28174;SDS011;59417;44.788;10.334;2024-02-26T11:34:20;15.25;;;10.93;;
28174;SDS011;59417;44.788;10.334;2024-02-26T11:36:46;23.77;;;10.20;;
28174;SDS011;59417;44.788;10.334;2024-02-26T11:39:12;15.27;;;10.88;;
28174;SDS011;59417;44.788;10.334;2024-02-26T11:41:42;14.38;;;10.70;;
28174;SDS011;59417;44.788;10.334;2024-02-26T11:44:08;19.95;;;11.80;;
28174;SDS011;59417;44.788;10.334;2024-02-26T11:46:40;13.10;;;8.98;;
28174;SDS011;59417;44.788;10.334;2024-02-26T11:51:53;15.63;;;11.00;;
28174;SDS011;59417;44.788;10.334;2024-02-26T11:57:38;12.60;;;10.48;;
28174;SDS011;59417;44.788;10.334;2024-02-26T12:00:11;12.23;;;8.93;;
28174;SDS011;59417;44.788;10.334;2024-02-26T12:02:55;15.45;;;9.95;;
28174;SDS011;59417;44.788;10.334;2024-02-26T12:05:26;13.93;;;9.80;;
28174;SDS011;59417;44.788;10.334;2024-02-26T12:08:05;12.32;;;9.25;;
28174;SDS011;59417;44.788;10.334;2024-02-26T12:10:37;13.70;;;8.95;;
28174;SDS011;59417;44.788;10.334;2024-02-26T12:13:14;15.38;;;9.60;;
28174;SDS011;59417;44.788;10.334;2024-02-26T12:15:55;15.10;;;10.70;;
28174;SDS011;59417;44.788;10.334;2024-02-26T12:18:22;11.43;;;8.80;;
28174;SDS011;59417;44.788;10.334;2024-02-26T12:20:58;15.90;;;9.95;;
28174;SDS011;59417;44.788;10.334;2024-02-26T12:23:28;12.25;;;9.45;;
28174;SDS011;59417;44.788;10.334;2024-02-26T12:25:58;10.52;;;8.80;;
28174;SDS011;59417;44.788;10.334;2024-02-26T12:30:56;13.20;;;8.02;;
28174;SDS011;59417;44.788;10.334;2024-02-26T12:33:24;10.73;;;8.13;;
28174;SDS011;59417;44.788;10.334;2024-02-26T12:35:52;8.85;;;7.95;;
28174;SDS011;59417;44.788;10.334;2024-02-26T12:38:18;11.52;;;7.80;;
28174;SDS011;59417;44.788;10.334;2024-02-26T12:40:44;10.93;;;7.47;;
28174;SDS011;59417;44.788;10.334;2024-02-26T12:43:13;11.43;;;7.03;;
28174;SDS011;59417;44.788;10.334;2024-02-26T12:45:40;9.80;;;6.38;;
28174;SDS011;59417;44.788;10.334;2024-02-26T12:48:06;9.55;;;6.65;;
28174;SDS011;59417;44.788;10.334;2024-02-26T12:50:32;10.80;;;5.82;;
28174;SDS011;59417;44.788;10.334;2024-02-26T12:52:59;8.90;;;5.60;;
28174;SDS011;59417;44.788;10.334;2024-02-26T12:55:25;6.78;;;4.25;;
28174;SDS011;59417;44.788;10.334;2024-02-26T12:57:51;6.50;;;3.05;;
28174;SDS011;59417;44.788;10.334;2024-02-26T13:00:25;3.13;;;2.10;;
28174;SDS011;59417;44.788;10.334;2024-02-26T13:02:52;3.03;;;1.95;;
28174;SDS011;59417;44.788;10.334;2024-02-26T13:05:20;4.13;;;2.05;;
28174;SDS011;59417;44.788;10.334;2024-02-26T13:07:51;4.53;;;1.90;;
28174;SDS011;59417;44.788;10.334;2024-02-26T13:10:18;7.05;;;2.03;;
28174;SDS011;59417;44.788;10.334;2024-02-26T13:12:46;13.52;;;12.05;;
28174;SDS011;59417;44.788;10.334;2024-02-26T13:15:16;3.70;;;2.13;;
28174;SDS011;59417;44.788;10.334;2024-02-26T13:17:51;4.63;;;2.28;;
28174;SDS011;59417;44.788;10.334;2024-02-26T13:20:30;4.28;;;2.20;;
28174;SDS011;59417;44.788;10.334;2024-02-26T13:23:03;3.43;;;2.00;;
28174;SDS011;59417;44.788;10.334;2024-02-26T13:25:31;3.50;;;2.33;;
28174;SDS011;59417;44.788;10.334;2024-02-26T13:28:18;3.17;;;2.40;;
28174;SDS011;59417;44.788;10.334;2024-02-26T13:30:55;2.97;;;2.65;;
28174;SDS011;59417;44.788;10.334;2024-02-26T13:33:23;4.90;;;2.45;;
28174;SDS011;59417;44.788;10.334;2024-02-26T13:35:49;4.45;;;3.70;;
28174;SDS011;59417;44.788;10.334;2024-02-26T13:38:19;4.13;;;3.00;;
28174;SDS011;59417;44.788;10.334;2024-02-26T13:40:45;5.85;;;3.65;;
28174;SDS011;59417;44.788;10.334;2024-02-26T13:43:10;5.28;;;4.22;;
28174;SDS011;59417;44.788;10.334;2024-02-26T13:45:37;6.28;;;4.00;;
28174;SDS011;59417;44.788;10.334;2024-02-26T13:48:04;7.20;;;5.20;;
28174;SDS011;59417;44.788;10.334;2024-02-26T13:50:31;8.80;;;5.32;;
28174;SDS011;59417;44.788;10.334;2024-02-26T13:53:03;6.07;;;5.47;;
28174;SDS011;59417;44.788;10.334;2024-02-26T13:55:43;9.20;;;5.70;;
28174;SDS011;59417;44.788;10.334;2024-02-26T13:58:09;7.43;;;5.80;;
28174;SDS011;59417;44.788;10.334;2024-02-26T14:00:37;7.05;;;5.50;;
28174;SDS011;59417;44.788;10.334;2024-02-26T14:03:03;7.47;;;5.05;;
28174;SDS011;59417;44.788;10.334;2024-02-26T14:05:32;6.57;;;5.47;;
28174;SDS011;59417;44.788;10.334;2024-02-26T14:07:57;7.60;;;4.80;;
28174;SDS011;59417;44.788;10.334;2024-02-26T14:10:23;6.85;;;5.57;;
28174;SDS011;59417;44.788;10.334;2024-02-26T14:12:49;8.27;;;4.78;;
28174;SDS011;59417;44.788;10.334;2024-02-26T14:15:21;8.93;;;4.43;;
28174;SDS011;59417;44.788;10.334;2024-02-26T14:17:56;7.53;;;4.22;;
28174;SDS011;59417;44.788;10.334;2024-02-26T14:20:23;6.80;;;4.20;;
28174;SDS011;59417;44.788;10.334;2024-02-26T14:22:55;3.97;;;3.55;;
28174;SDS011;59417;44.788;10.334;2024-02-26T14:25:25;5.65;;;3.85;;
28174;SDS011;59417;44.788;10.334;2024-02-26T14:27:51;13.35;;;3.42;;
28174;SDS011;59417;44.788;10.334;2024-02-26T14:30:17;3.20;;;2.90;;
28174;SDS011;59417;44.788;10.334;2024-02-26T14:32:42;4.72;;;3.05;;
28174;SDS011;59417;44.788;10.334;2024-02-26T14:35:09;5.63;;;2.95;;
28174;SDS011;59417;44.788;10.334;2024-02-26T14:37:35;4.28;;;3.30;;
28174;SDS011;59417;44.788;10.334;2024-02-26T14:40:02;3.95;;;3.28;;
28174;SDS011;59417;44.788;10.334;2024-02-26T14:42:28;3.63;;;3.00;;
28174;SDS011;59417;44.788;10.334;2024-02-26T14:45:00;5.15;;;3.08;;
28174;SDS011;59417;44.788;10.334;2024-02-26T14:47:26;3.15;;;2.85;;
28174;SDS011;59417;44.788;10.334;2024-02-26T14:49:52;6.25;;;3.83;;
28174;SDS011;59417;44.788;10.334;2024-02-26T14:52:17;4.32;;;3.10;;
28174;SDS011;59417;44.788;10.334;2024-02-26T14:54:44;4.00;;;3.47;;
28174;SDS011;59417;44.788;10.334;2024-02-26T14:57:12;5.50;;;4.13;;
28174;SDS011;59417;44.788;10.334;2024-02-26T14:59:38;7.53;;;4.78;;
28174;SDS011;59417;44.788;10.334;2024-02-26T15:02:04;5.95;;;3.95;;
28174;SDS011;59417;44.788;10.334;2024-02-26T15:04:31;4.20;;;3.75;;
28174;SDS011;59417;44.788;10.334;2024-02-26T15:07:00;5.80;;;3.95;;
28174;SDS011;59417;44.788;10.334;2024-02-26T15:09:27;4.60;;;2.90;;
28174;SDS011;59417;44.788;10.334;2024-02-26T15:11:52;5.07;;;2.70;;
28174;SDS011;59417;44.788;10.334;2024-02-26T15:14:18;6.43;;;2.53;;
28174;SDS011;59417;44.788;10.334;2024-02-26T15:16:44;2.38;;;2.00;;
28174;SDS011;59417;44.788;10.334;2024-02-26T15:19:10;5.55;;;2.55;;